sensor_id;sensor_type;location;lat;lon;timestamp;pressure;altitude;pressure_sealevel;temperature
67353;BMP180;54238;52.278;21.056;2022-07-21T00:00:58;100953.40;;;21.40
67353;BMP180;54238;52.278;21.056;2022-07-21T00:03:29;100956.40;;;21.40
67353;BMP180;54238;52.278;21.056;2022-07-21T00:05:59;100956.60;;;21.40
67353;BMP180;54238;52.278;21.056;2022-07-21T00:08:28;100953.20;;;21.32
67353;BMP180;54238;52.278;21.056;2022-07-21T00:10:58;100949.60;;;21.30
67353;BMP180;54238;52.278;21.056;2022-07-21T00:13:25;100954.60;;;21.30
67353;BMP180;54238;52.278;21.056;2022-07-21T00:15:54;100955.20;;;21.20
67353;BMP180;54238;52.278;21.056;2022-07-21T00:18:21;100954.00;;;21.20
67353;BMP180;54238;52.278;21.056;2022-07-21T00:20:51;100951.00;;;21.12
67353;BMP180;54238;52.278;21.056;2022-07-21T00:23:23;100953.60;;;21.10
67353;BMP180;54238;52.278;21.056;2022-07-21T00:25:51;100958.20;;;21.10
67353;BMP180;54238;52.278;21.056;2022-07-21T00:28:23;100957.40;;;21.10
67353;BMP180;54238;52.278;21.056;2022-07-21T00:30:51;100952.60;;;21.10
67353;BMP180;54238;52.278;21.056;2022-07-21T00:33:18;100955.80;;;21.10
67353;BMP180;54238;52.278;21.056;2022-07-21T00:35:49;100960.00;;;21.20
67353;BMP180;54238;52.278;21.056;2022-07-21T00:38:19;100959.00;;;21.20
67353;BMP180;54238;52.278;21.056;2022-07-21T00:40:48;100960.00;;;21.20
67353;BMP180;54238;52.278;21.056;2022-07-21T00:43:17;100957.20;;;21.20
67353;BMP180;54238;52.278;21.056;2022-07-21T00:45:46;100957.60;;;21.20
67353;BMP180;54238;52.278;21.056;2022-07-21T00:48:18;100956.80;;;21.20
67353;BMP180;54238;52.278;21.056;2022-07-21T00:50:46;100956.40;;;21.20
67353;BMP180;54238;52.278;21.056;2022-07-21T00:53:14;100959.80;;;21.20
67353;BMP180;54238;52.278;21.056;2022-07-21T00:55:45;100961.60;;;21.20
67353;BMP180;54238;52.278;21.056;2022-07-21T00:58:13;100964.20;;;21.10
67353;BMP180;54238;52.278;21.056;2022-07-21T01:00:41;100964.40;;;21.10
67353;BMP180;54238;52.278;21.056;2022-07-21T01:03:11;100964.00;;;21.10
67353;BMP180;54238;52.278;21.056;2022-07-21T01:05:41;100968.20;;;21.10
67353;BMP180;54238;52.278;21.056;2022-07-21T01:08:12;100969.00;;;21.10
67353;BMP180;54238;52.278;21.056;2022-07-21T01:10:43;100971.00;;;21.00
67353;BMP180;54238;52.278;21.056;2022-07-21T01:13:16;100974.60;;;21.00
67353;BMP180;54238;52.278;21.056;2022-07-21T01:15:48;100981.20;;;21.00
67353;BMP180;54238;52.278;21.056;2022-07-21T01:18:22;100982.40;;;20.90
67353;BMP180;54238;52.278;21.056;2022-07-21T01:20:55;100979.20;;;20.90
67353;BMP180;54238;52.278;21.056;2022-07-21T01:23:26;100985.20;;;20.90
67353;BMP180;54238;52.278;21.056;2022-07-21T01:25:56;100990.00;;;20.90
67353;BMP180;54238;52.278;21.056;2022-07-21T01:28:25;100992.60;;;20.90
67353;BMP180;54238;52.278;21.056;2022-07-21T01:30:57;100993.80;;;20.82
67353;BMP180;54238;52.278;21.056;2022-07-21T01:33:26;100992.80;;;20.80
67353;BMP180;54238;52.278;21.056;2022-07-21T01:35:55;100993.00;;;20.84
67353;BMP180;54238;52.278;21.056;2022-07-21T01:38:28;100987.80;;;20.84
67353;BMP180;54238;52.278;21.056;2022-07-21T01:41:14;100984.00;;;20.90
67353;BMP180;54238;52.278;21.056;2022-07-21T01:44:02;100986.80;;;20.90
67353;BMP180;54238;52.278;21.056;2022-07-21T01:46:38;100993.80;;;20.80
67353;BMP180;54238;52.278;21.056;2022-07-21T01:49:08;100996.80;;;20.80
67353;BMP180;54238;52.278;21.056;2022-07-21T01:51:37;101004.20;;;20.70
67353;BMP180;54238;52.278;21.056;2022-07-21T01:54:06;101002.20;;;20.70
67353;BMP180;54238;52.278;21.056;2022-07-21T01:56:39;101002.20;;;20.70
67353;BMP180;54238;52.278;21.056;2022-07-21T01:59:10;101003.60;;;20.70
67353;BMP180;54238;52.278;21.056;2022-07-21T02:01:40;101004.00;;;20.70
67353;BMP180;54238;52.278;21.056;2022-07-21T02:04:09;101002.80;;;20.70
67353;BMP180;54238;52.278;21.056;2022-07-21T02:06:37;101004.00;;;20.70
67353;BMP180;54238;52.278;21.056;2022-07-21T02:09:04;101004.40;;;20.62
67353;BMP180;54238;52.278;21.056;2022-07-21T02:11:34;101000.00;;;20.60
67353;BMP180;54238;52.278;21.056;2022-07-21T02:14:03;100995.40;;;20.60
67353;BMP180;54238;52.278;21.056;2022-07-21T02:16:30;100996.00;;;20.58
67353;BMP180;54238;52.278;21.056;2022-07-21T02:19:03;100994.00;;;20.50
67353;BMP180;54238;52.278;21.056;2022-07-21T02:21:30;100998.00;;;20.48
67353;BMP180;54238;52.278;21.056;2022-07-21T02:24:00;100995.60;;;20.40
67353;BMP180;54238;52.278;21.056;2022-07-21T02:26:29;100993.20;;;20.40
67353;BMP180;54238;52.278;21.056;2022-07-21T02:29:01;100995.20;;;20.40
67353;BMP180;54238;52.278;21.056;2022-07-21T02:31:36;100998.00;;;20.38
67353;BMP180;54238;52.278;21.056;2022-07-21T02:34:03;101002.60;;;20.30
67353;BMP180;54238;52.278;21.056;2022-07-21T02:36:34;101000.80;;;20.30
67353;BMP180;54238;52.278;21.056;2022-07-21T02:39:02;101005.00;;;20.30
67353;BMP180;54238;52.278;21.056;2022-07-21T02:41:33;101004.80;;;20.30
67353;BMP180;54238;52.278;21.056;2022-07-21T02:44:08;101007.20;;;20.30
67353;BMP180;54238;52.278;21.056;2022-07-21T02:46:37;101006.00;;;20.28
67353;BMP180;54238;52.278;21.056;2022-07-21T02:49:08;101001.80;;;20.28
67353;BMP180;54238;52.278;21.056;2022-07-21T02:51:35;101000.60;;;20.20
67353;BMP180;54238;52.278;21.056;2022-07-21T02:54:05;100997.80;;;20.22
67353;BMP180;54238;52.278;21.056;2022-07-21T02:56:34;100997.00;;;20.20
67353;BMP180;54238;52.278;21.056;2022-07-21T02:59:06;100996.40;;;20.20
67353;BMP180;54238;52.278;21.056;2022-07-21T03:01:35;100994.80;;;20.12
67353;BMP180;54238;52.278;21.056;2022-07-21T03:04:02;100996.60;;;20.10
67353;BMP180;54238;52.278;21.056;2022-07-21T03:06:36;100993.40;;;20.10
67353;BMP180;54238;52.278;21.056;2022-07-21T03:09:05;100993.80;;;20.10
67353;BMP180;54238;52.278;21.056;2022-07-21T03:11:32;100985.60;;;20.10
67353;BMP180;54238;52.278;21.056;2022-07-21T03:13:59;100986.40;;;20.10
67353;BMP180;54238;52.278;21.056;2022-07-21T03:16:31;100984.80;;;20.10
67353;BMP180;54238;52.278;21.056;2022-07-21T03:18:58;100981.20;;;20.08
67353;BMP180;54238;52.278;21.056;2022-07-21T03:21:27;100983.40;;;20.04
67353;BMP180;54238;52.278;21.056;2022-07-21T03:23:59;100981.60;;;20.00
67353;BMP180;54238;52.278;21.056;2022-07-21T03:26:30;100978.80;;;20.00
67353;BMP180;54238;52.278;21.056;2022-07-21T03:28:58;100976.20;;;20.00
67353;BMP180;54238;52.278;21.056;2022-07-21T03:31:25;100979.20;;;20.00
67353;BMP180;54238;52.278;21.056;2022-07-21T03:33:52;100981.00;;;20.06
67353;BMP180;54238;52.278;21.056;2022-07-21T03:36:21;100985.80;;;20.10
67353;BMP180;54238;52.278;21.056;2022-07-21T03:38:51;100982.60;;;20.10
67353;BMP180;54238;52.278;21.056;2022-07-21T03:41:20;100985.60;;;20.10
67353;BMP180;54238;52.278;21.056;2022-07-21T03:43:53;100985.80;;;20.10
67353;BMP180;54238;52.278;21.056;2022-07-21T03:46:23;100984.60;;;20.10
67353;BMP180;54238;52.278;21.056;2022-07-21T03:48:54;100987.00;;;20.10
67353;BMP180;54238;52.278;21.056;2022-07-21T03:51:21;100984.40;;;20.12
67353;BMP180;54238;52.278;21.056;2022-07-21T03:53:48;100986.60;;;20.20
67353;BMP180;54238;52.278;21.056;2022-07-21T03:56:22;100987.20;;;20.20
67353;BMP180;54238;52.278;21.056;2022-07-21T03:58:51;100982.80;;;20.20
67353;BMP180;54238;52.278;21.056;2022-07-21T04:01:23;100984.20;;;20.30
67353;BMP180;54238;52.278;21.056;2022-07-21T04:03:51;100986.60;;;20.30
67353;BMP180;54238;52.278;21.056;2022-07-21T04:06:18;100987.60;;;20.30
67353;BMP180;54238;52.278;21.056;2022-07-21T04:08:45;100986.60;;;20.30
67353;BMP180;54238;52.278;21.056;2022-07-21T04:11:14;100988.00;;;20.30
67353;BMP180;54238;52.278;21.056;2022-07-21T04:13:45;100993.40;;;20.30
67353;BMP180;54238;52.278;21.056;2022-07-21T04:16:15;100988.20;;;20.40
67353;BMP180;54238;52.278;21.056;2022-07-21T04:18:44;100988.60;;;20.40
67353;BMP180;54238;52.278;21.056;2022-07-21T04:21:19;100985.40;;;20.40
67353;BMP180;54238;52.278;21.056;2022-07-21T04:23:48;100992.60;;;20.50
67353;BMP180;54238;52.278;21.056;2022-07-21T04:26:18;100993.80;;;20.50
67353;BMP180;54238;52.278;21.056;2022-07-21T04:28:49;100998.80;;;20.50
67353;BMP180;54238;52.278;21.056;2022-07-21T04:31:16;101000.40;;;20.60
67353;BMP180;54238;52.278;21.056;2022-07-21T04:33:46;101000.60;;;20.60
67353;BMP180;54238;52.278;21.056;2022-07-21T04:36:18;101004.20;;;20.60
67353;BMP180;54238;52.278;21.056;2022-07-21T04:38:48;101010.80;;;20.60
67353;BMP180;54238;52.278;21.056;2022-07-21T04:41:17;101008.60;;;20.60
67353;BMP180;54238;52.278;21.056;2022-07-21T04:43:44;101010.00;;;20.70
67353;BMP180;54238;52.278;21.056;2022-07-21T04:46:17;101011.60;;;20.70
67353;BMP180;54238;52.278;21.056;2022-07-21T04:48:44;101011.00;;;20.70
67353;BMP180;54238;52.278;21.056;2022-07-21T04:51:15;101011.40;;;20.70
67353;BMP180;54238;52.278;21.056;2022-07-21T04:53:43;101016.20;;;20.76
67353;BMP180;54238;52.278;21.056;2022-07-21T04:56:12;101014.00;;;20.80
67353;BMP180;54238;52.278;21.056;2022-07-21T04:58:41;101005.60;;;20.80
67353;BMP180;54238;52.278;21.056;2022-07-21T05:01:08;101002.40;;;20.86
67353;BMP180;54238;52.278;21.056;2022-07-21T05:03:35;101000.60;;;20.90
67353;BMP180;54238;52.278;21.056;2022-07-21T05:06:09;100990.20;;;20.90
67353;BMP180;54238;52.278;21.056;2022-07-21T05:08:41;100987.20;;;21.00
67353;BMP180;54238;52.278;21.056;2022-07-21T05:11:08;100980.80;;;21.00
67353;BMP180;54238;52.278;21.056;2022-07-21T05:16:38;100982.40;;;21.10
67353;BMP180;54238;52.278;21.056;2022-07-21T05:19:08;100985.40;;;21.10
67353;BMP180;54238;52.278;21.056;2022-07-21T05:21:37;100988.60;;;21.20
67353;BMP180;54238;52.278;21.056;2022-07-21T05:24:07;100989.20;;;21.20
67353;BMP180;54238;52.278;21.056;2022-07-21T05:26:36;100985.80;;;21.30
67353;BMP180;54238;52.278;21.056;2022-07-21T05:29:05;100988.80;;;21.30
67353;BMP180;54238;52.278;21.056;2022-07-21T05:31:37;100992.60;;;21.40
67353;BMP180;54238;52.278;21.056;2022-07-21T05:34:06;100993.40;;;21.40
67353;BMP180;54238;52.278;21.056;2022-07-21T05:36:38;100989.00;;;21.40
67353;BMP180;54238;52.278;21.056;2022-07-21T05:39:05;100988.00;;;21.48
67353;BMP180;54238;52.278;21.056;2022-07-21T05:41:32;100987.80;;;21.50
67353;BMP180;54238;52.278;21.056;2022-07-21T05:44:27;100987.20;;;21.60
67353;BMP180;54238;52.278;21.056;2022-07-21T05:46:57;100984.60;;;21.68
67353;BMP180;54238;52.278;21.056;2022-07-21T05:49:29;100981.40;;;21.70
67353;BMP180;54238;52.278;21.056;2022-07-21T05:51:56;100987.00;;;21.80
67353;BMP180;54238;52.278;21.056;2022-07-21T05:54:23;100990.00;;;21.80
67353;BMP180;54238;52.278;21.056;2022-07-21T05:56:52;100994.60;;;21.90
67353;BMP180;54238;52.278;21.056;2022-07-21T06:02:17;101002.20;;;22.06
67353;BMP180;54238;52.278;21.056;2022-07-21T06:04:51;101002.00;;;22.10
67353;BMP180;54238;52.278;21.056;2022-07-21T06:07:23;100992.80;;;22.20
67353;BMP180;54238;52.278;21.056;2022-07-21T06:09:52;100992.60;;;22.30
67353;BMP180;54238;52.278;21.056;2022-07-21T06:12:19;100984.20;;;22.30
67353;BMP180;54238;52.278;21.056;2022-07-21T06:14:48;100980.80;;;22.30
67353;BMP180;54238;52.278;21.056;2022-07-21T06:17:20;100983.80;;;22.30
67353;BMP180;54238;52.278;21.056;2022-07-21T06:19:47;100978.00;;;22.40
67353;BMP180;54238;52.278;21.056;2022-07-21T06:22:19;100980.40;;;22.44
67353;BMP180;54238;52.278;21.056;2022-07-21T06:24:51;100985.40;;;22.50
67353;BMP180;54238;52.278;21.056;2022-07-21T06:27:30;100981.00;;;22.60
67353;BMP180;54238;52.278;21.056;2022-07-21T06:29:58;100983.40;;;22.64
67353;BMP180;54238;52.278;21.056;2022-07-21T06:32:28;100975.60;;;22.70
67353;BMP180;54238;52.278;21.056;2022-07-21T06:34:55;100972.40;;;22.80
67353;BMP180;54238;52.278;21.056;2022-07-21T06:37:21;100964.80;;;22.90
67353;BMP180;54238;52.278;21.056;2022-07-21T06:39:48;100969.40;;;22.98
67353;BMP180;54238;52.278;21.056;2022-07-21T06:42:20;100965.80;;;23.02
67353;BMP180;54238;52.278;21.056;2022-07-21T06:44:47;100967.60;;;23.14
67353;BMP180;54238;52.278;21.056;2022-07-21T06:47:17;100966.00;;;23.20
67353;BMP180;54238;52.278;21.056;2022-07-21T06:49:48;100961.00;;;23.30
67353;BMP180;54238;52.278;21.056;2022-07-21T06:52:18;100969.20;;;23.40
67353;BMP180;54238;52.278;21.056;2022-07-21T06:54:45;100970.20;;;23.50
67353;BMP180;54238;52.278;21.056;2022-07-21T06:57:17;100975.00;;;23.60
67353;BMP180;54238;52.278;21.056;2022-07-21T06:59:44;100974.00;;;23.70
67353;BMP180;54238;52.278;21.056;2022-07-21T07:02:14;100978.00;;;23.70
67353;BMP180;54238;52.278;21.056;2022-07-21T07:04:45;100978.00;;;23.80
67353;BMP180;54238;52.278;21.056;2022-07-21T07:07:13;100981.20;;;23.80
67353;BMP180;54238;52.278;21.056;2022-07-21T07:09:42;100981.80;;;23.80
67353;BMP180;54238;52.278;21.056;2022-07-21T07:12:12;100980.80;;;23.90
67353;BMP180;54238;52.278;21.056;2022-07-21T07:14:46;100979.00;;;24.00
67353;BMP180;54238;52.278;21.056;2022-07-21T07:17:19;100980.00;;;24.00
67353;BMP180;54238;52.278;21.056;2022-07-21T07:19:47;100980.80;;;24.00
67353;BMP180;54238;52.278;21.056;2022-07-21T07:22:17;100988.80;;;24.06
67353;BMP180;54238;52.278;21.056;2022-07-21T07:24:47;100994.60;;;24.10
67353;BMP180;54238;52.278;21.056;2022-07-21T07:27:16;100993.20;;;24.20
67353;BMP180;54238;52.278;21.056;2022-07-21T07:29:46;100988.00;;;24.30
67353;BMP180;54238;52.278;21.056;2022-07-21T07:32:15;100988.40;;;24.40
67353;BMP180;54238;52.278;21.056;2022-07-21T07:34:42;100988.00;;;24.50
67353;BMP180;54238;52.278;21.056;2022-07-21T07:37:12;100996.80;;;24.52
67353;BMP180;54238;52.278;21.056;2022-07-21T07:39:39;101000.80;;;24.60
67353;BMP180;54238;52.278;21.056;2022-07-21T07:42:11;101004.20;;;24.70
67353;BMP180;54238;52.278;21.056;2022-07-21T07:44:42;101000.60;;;24.70
67353;BMP180;54238;52.278;21.056;2022-07-21T07:47:10;101002.80;;;24.70
67353;BMP180;54238;52.278;21.056;2022-07-21T07:49:39;101003.80;;;24.74
67353;BMP180;54238;52.278;21.056;2022-07-21T07:52:06;101009.00;;;24.80
67353;BMP180;54238;52.278;21.056;2022-07-21T07:54:32;101011.60;;;24.80
67353;BMP180;54238;52.278;21.056;2022-07-21T07:57:02;101010.60;;;24.90
67353;BMP180;54238;52.278;21.056;2022-07-21T07:59:32;101007.80;;;25.00
67353;BMP180;54238;52.278;21.056;2022-07-21T08:01:59;101005.00;;;25.10
67353;BMP180;54238;52.278;21.056;2022-07-21T08:04:29;101003.20;;;25.16
67353;BMP180;54238;52.278;21.056;2022-07-21T08:06:59;101004.20;;;25.22
67353;BMP180;54238;52.278;21.056;2022-07-21T08:09:32;101005.00;;;25.40
67353;BMP180;54238;52.278;21.056;2022-07-21T08:12:02;101004.40;;;25.50
67353;BMP180;54238;52.278;21.056;2022-07-21T08:14:34;101001.00;;;25.70
67353;BMP180;54238;52.278;21.056;2022-07-21T08:17:03;100995.60;;;25.80
67353;BMP180;54238;52.278;21.056;2022-07-21T08:19:32;100994.20;;;25.90
67353;BMP180;54238;52.278;21.056;2022-07-21T08:22:01;100993.20;;;26.00
67353;BMP180;54238;52.278;21.056;2022-07-21T08:24:29;100991.20;;;26.20
67353;BMP180;54238;52.278;21.056;2022-07-21T08:26:57;100985.60;;;26.30
67353;BMP180;54238;52.278;21.056;2022-07-21T08:29:26;100981.40;;;26.44
67353;BMP180;54238;52.278;21.056;2022-07-21T08:31:53;100984.80;;;26.54
67353;BMP180;54238;52.278;21.056;2022-07-21T08:34:21;100989.00;;;26.64
67353;BMP180;54238;52.278;21.056;2022-07-21T08:36:50;100986.20;;;26.70
67353;BMP180;54238;52.278;21.056;2022-07-21T08:39:20;100983.80;;;26.70
67353;BMP180;54238;52.278;21.056;2022-07-21T08:41:53;100980.60;;;26.70
67353;BMP180;54238;52.278;21.056;2022-07-21T08:44:21;100977.40;;;26.80
67353;BMP180;54238;52.278;21.056;2022-07-21T08:46:52;100973.20;;;26.80
67353;BMP180;54238;52.278;21.056;2022-07-21T08:49:23;100978.80;;;26.96
67353;BMP180;54238;52.278;21.056;2022-07-21T08:51:51;100979.40;;;27.08
67353;BMP180;54238;52.278;21.056;2022-07-21T08:54:22;100985.20;;;27.20
67353;BMP180;54238;52.278;21.056;2022-07-21T08:56:51;100990.20;;;27.30
67353;BMP180;54238;52.278;21.056;2022-07-21T08:59:21;100996.00;;;27.40
67353;BMP180;54238;52.278;21.056;2022-07-21T09:01:49;100994.80;;;27.54
67353;BMP180;54238;52.278;21.056;2022-07-21T09:04:30;100993.40;;;27.60
67353;BMP180;54238;52.278;21.056;2022-07-21T09:07:06;100994.40;;;27.70
67353;BMP180;54238;52.278;21.056;2022-07-21T09:09:35;100989.40;;;27.80
67353;BMP180;54238;52.278;21.056;2022-07-21T09:12:08;100987.40;;;27.90
67353;BMP180;54238;52.278;21.056;2022-07-21T09:14:40;100992.40;;;28.10
67353;BMP180;54238;52.278;21.056;2022-07-21T09:17:07;100993.60;;;28.10
67353;BMP180;54238;52.278;21.056;2022-07-21T09:19:38;100999.60;;;28.30
67353;BMP180;54238;52.278;21.056;2022-07-21T09:22:17;101000.20;;;28.34
67353;BMP180;54238;52.278;21.056;2022-07-21T09:24:52;100991.20;;;28.50
67353;BMP180;54238;52.278;21.056;2022-07-21T09:27:27;100987.60;;;28.64
67353;BMP180;54238;52.278;21.056;2022-07-21T09:29:59;100979.60;;;28.82
67353;BMP180;54238;52.278;21.056;2022-07-21T09:32:33;100973.00;;;29.00
67353;BMP180;54238;52.278;21.056;2022-07-21T09:35:11;100975.20;;;29.20
67353;BMP180;54238;52.278;21.056;2022-07-21T09:37:44;100971.60;;;29.44
67353;BMP180;54238;52.278;21.056;2022-07-21T09:40:13;100964.80;;;29.64
67353;BMP180;54238;52.278;21.056;2022-07-21T09:42:49;100972.00;;;29.90
67353;BMP180;54238;52.278;21.056;2022-07-21T09:45:21;100968.00;;;30.10
67353;BMP180;54238;52.278;21.056;2022-07-21T09:47:48;100969.00;;;30.30
67353;BMP180;54238;52.278;21.056;2022-07-21T09:50:20;100968.20;;;30.40
67353;BMP180;54238;52.278;21.056;2022-07-21T09:52:47;100966.60;;;30.56
67353;BMP180;54238;52.278;21.056;2022-07-21T09:55:16;100963.60;;;30.70
67353;BMP180;54238;52.278;21.056;2022-07-21T09:57:46;100961.20;;;30.90
67353;BMP180;54238;52.278;21.056;2022-07-21T10:00:17;100964.00;;;31.16
67353;BMP180;54238;52.278;21.056;2022-07-21T10:02:45;100967.60;;;31.40
67353;BMP180;54238;52.278;21.056;2022-07-21T10:05:16;100964.80;;;31.60
67353;BMP180;54238;52.278;21.056;2022-07-21T10:07:48;100964.40;;;31.86
67353;BMP180;54238;52.278;21.056;2022-07-21T10:10:17;100960.20;;;32.10
67353;BMP180;54238;52.278;21.056;2022-07-21T10:12:47;100957.60;;;32.22
67353;BMP180;54238;52.278;21.056;2022-07-21T10:15:15;100959.20;;;32.40
67353;BMP180;54238;52.278;21.056;2022-07-21T10:17:51;100957.80;;;32.62
67353;BMP180;54238;52.278;21.056;2022-07-21T10:20:34;100962.00;;;32.96
67353;BMP180;54238;52.278;21.056;2022-07-21T10:23:10;100961.00;;;33.28
67353;BMP180;54238;52.278;21.056;2022-07-21T10:25:42;100959.60;;;33.44
67353;BMP180;54238;52.278;21.056;2022-07-21T10:30:45;100962.40;;;33.94
67353;BMP180;54238;52.278;21.056;2022-07-21T10:33:15;100954.20;;;34.10
67353;BMP180;54238;52.278;21.056;2022-07-21T10:35:46;100956.20;;;34.20
67353;BMP180;54238;52.278;21.056;2022-07-21T10:38:34;100949.60;;;34.30
67353;BMP180;54238;52.278;21.056;2022-07-21T10:41:05;100952.80;;;34.48
67353;BMP180;54238;52.278;21.056;2022-07-21T10:43:36;100945.00;;;34.40
67353;BMP180;54238;52.278;21.056;2022-07-21T10:46:34;100942.00;;;34.50
67353;BMP180;54238;52.278;21.056;2022-07-21T10:49:05;100943.20;;;34.70
67353;BMP180;54238;52.278;21.056;2022-07-21T10:51:33;100932.80;;;34.90
67353;BMP180;54238;52.278;21.056;2022-07-21T10:54:24;100933.60;;;35.00
67353;BMP180;54238;52.278;21.056;2022-07-21T10:57:24;100935.40;;;35.28
67353;BMP180;54238;52.278;21.056;2022-07-21T11:00:33;100941.80;;;35.60
67353;BMP180;54238;52.278;21.056;2022-07-21T11:03:15;100943.40;;;35.50
67353;BMP180;54238;52.278;21.056;2022-07-21T11:11:25;100931.00;;;35.80
67353;BMP180;54238;52.278;21.056;2022-07-21T11:14:17;100925.60;;;35.86
67353;BMP180;54238;52.278;21.056;2022-07-21T11:19:41;100926.40;;;36.00
67353;BMP180;54238;52.278;21.056;2022-07-21T11:22:29;100923.40;;;36.20
67353;BMP180;54238;52.278;21.056;2022-07-21T11:25:02;100920.00;;;36.40
67353;BMP180;54238;52.278;21.056;2022-07-21T11:27:35;100917.20;;;36.58
67353;BMP180;54238;52.278;21.056;2022-07-21T11:30:07;100920.00;;;36.78
67353;BMP180;54238;52.278;21.056;2022-07-21T11:32:35;100916.60;;;37.00
67353;BMP180;54238;52.278;21.056;2022-07-21T11:35:05;100915.80;;;37.10
67353;BMP180;54238;52.278;21.056;2022-07-21T11:37:44;100920.40;;;37.20
67353;BMP180;54238;52.278;21.056;2022-07-21T11:40:17;100919.20;;;37.30
67353;BMP180;54238;52.278;21.056;2022-07-21T11:42:51;100918.60;;;37.40
67353;BMP180;54238;52.278;21.056;2022-07-21T11:45:23;100920.00;;;37.60
67353;BMP180;54238;52.278;21.056;2022-07-21T11:47:52;100920.80;;;37.80
67353;BMP180;54238;52.278;21.056;2022-07-21T11:50:22;100915.00;;;37.80
67353;BMP180;54238;52.278;21.056;2022-07-21T11:52:56;100909.00;;;37.90
67353;BMP180;54238;52.278;21.056;2022-07-21T11:55:28;100905.00;;;37.90
67353;BMP180;54238;52.278;21.056;2022-07-21T11:57:56;100898.60;;;38.10
67353;BMP180;54238;52.278;21.056;2022-07-21T12:00:24;100896.60;;;38.46
67353;BMP180;54238;52.278;21.056;2022-07-21T12:03:04;100897.60;;;38.70
67353;BMP180;54238;52.278;21.056;2022-07-21T12:05:34;100892.80;;;38.92
67353;BMP180;54238;52.278;21.056;2022-07-21T12:08:01;100891.00;;;39.00
67353;BMP180;54238;52.278;21.056;2022-07-21T12:10:32;100889.00;;;38.98
67353;BMP180;54238;52.278;21.056;2022-07-21T12:13:06;100888.00;;;39.02
67353;BMP180;54238;52.278;21.056;2022-07-21T12:15:36;100884.00;;;39.20
67353;BMP180;54238;52.278;21.056;2022-07-21T12:18:25;100885.00;;;39.50
67353;BMP180;54238;52.278;21.056;2022-07-21T12:21:06;100881.00;;;39.70
67353;BMP180;54238;52.278;21.056;2022-07-21T12:23:35;100874.80;;;39.90
67353;BMP180;54238;52.278;21.056;2022-07-21T12:26:04;100867.80;;;40.02
67353;BMP180;54238;52.278;21.056;2022-07-21T12:28:46;100873.80;;;39.90
67353;BMP180;54238;52.278;21.056;2022-07-21T12:31:18;100876.20;;;40.10
67353;BMP180;54238;52.278;21.056;2022-07-21T12:33:53;100876.20;;;40.30
67353;BMP180;54238;52.278;21.056;2022-07-21T12:36:20;100872.20;;;40.30
67353;BMP180;54238;52.278;21.056;2022-07-21T12:38:50;100872.00;;;40.56
67353;BMP180;54238;52.278;21.056;2022-07-21T12:41:20;100867.00;;;40.88
67353;BMP180;54238;52.278;21.056;2022-07-21T12:43:59;100866.80;;;41.14
67353;BMP180;54238;52.278;21.056;2022-07-21T12:46:34;100862.60;;;41.30
67353;BMP180;54238;52.278;21.056;2022-07-21T12:49:09;100861.80;;;41.30
67353;BMP180;54238;52.278;21.056;2022-07-21T12:51:38;100861.00;;;41.30
67353;BMP180;54238;52.278;21.056;2022-07-21T12:54:07;100863.60;;;41.40
67353;BMP180;54238;52.278;21.056;2022-07-21T12:56:38;100865.60;;;41.60
67353;BMP180;54238;52.278;21.056;2022-07-21T12:59:07;100866.40;;;41.70
67353;BMP180;54238;52.278;21.056;2022-07-21T13:01:43;100872.20;;;41.60
67353;BMP180;54238;52.278;21.056;2022-07-21T13:04:12;100872.00;;;41.56
67353;BMP180;54238;52.278;21.056;2022-07-21T13:06:41;100868.80;;;41.50
67353;BMP180;54238;52.278;21.056;2022-07-21T13:09:08;100868.40;;;41.34
67353;BMP180;54238;52.278;21.056;2022-07-21T13:11:37;100867.00;;;41.30
67353;BMP180;54238;52.278;21.056;2022-07-21T13:14:04;100865.00;;;41.40
67353;BMP180;54238;52.278;21.056;2022-07-21T13:16:31;100861.20;;;41.30
67353;BMP180;54238;52.278;21.056;2022-07-21T13:18:58;100860.60;;;41.40
67353;BMP180;54238;52.278;21.056;2022-07-21T13:21:25;100856.60;;;41.50
67353;BMP180;54238;52.278;21.056;2022-07-21T13:23:52;100849.80;;;41.70
67353;BMP180;54238;52.278;21.056;2022-07-21T13:26:21;100841.60;;;42.00
67353;BMP180;54238;52.278;21.056;2022-07-21T13:28:48;100845.00;;;42.12
67353;BMP180;54238;52.278;21.056;2022-07-21T13:31:18;100837.80;;;42.28
67353;BMP180;54238;52.278;21.056;2022-07-21T13:33:49;100835.60;;;42.30
67353;BMP180;54238;52.278;21.056;2022-07-21T13:36:16;100837.80;;;42.30
67353;BMP180;54238;52.278;21.056;2022-07-21T13:38:46;100840.40;;;42.50
67353;BMP180;54238;52.278;21.056;2022-07-21T13:41:13;100843.40;;;42.48
67353;BMP180;54238;52.278;21.056;2022-07-21T13:43:44;100841.00;;;42.32
67353;BMP180;54238;52.278;21.056;2022-07-21T13:46:14;100840.00;;;42.30
67353;BMP180;54238;52.278;21.056;2022-07-21T13:48:41;100837.60;;;42.20
67353;BMP180;54238;52.278;21.056;2022-07-21T13:51:16;100836.60;;;42.20
67353;BMP180;54238;52.278;21.056;2022-07-21T13:53:51;100833.60;;;42.30
67353;BMP180;54238;52.278;21.056;2022-07-21T13:56:21;100831.40;;;42.30
67353;BMP180;54238;52.278;21.056;2022-07-21T13:58:51;100828.60;;;42.20
67353;BMP180;54238;52.278;21.056;2022-07-21T14:01:21;100825.00;;;42.10
67353;BMP180;54238;52.278;21.056;2022-07-21T14:03:51;100826.20;;;42.10
67353;BMP180;54238;52.278;21.056;2022-07-21T14:06:20;100822.20;;;42.10
67353;BMP180;54238;52.278;21.056;2022-07-21T14:08:47;100820.20;;;42.14
67353;BMP180;54238;52.278;21.056;2022-07-21T14:11:15;100817.60;;;42.18
67353;BMP180;54238;52.278;21.056;2022-07-21T14:13:43;100813.00;;;42.00
67353;BMP180;54238;52.278;21.056;2022-07-21T14:16:10;100813.20;;;41.80
67353;BMP180;54238;52.278;21.056;2022-07-21T14:18:37;100809.20;;;41.70
67353;BMP180;54238;52.278;21.056;2022-07-21T14:21:05;100810.00;;;41.70